sensor_id;sensor_type;location;lat;lon;timestamp;P1;P2;P0
35654;PMS1003;21773;50.010;19.972;2023-02-28T00:01:02;23.00;20.80;18.20
35654;PMS1003;21773;50.010;19.972;2023-02-28T00:04:07;17.80;16.20;14.20
35654;PMS1003;21773;50.010;19.972;2023-02-28T00:07:11;19.60;17.60;15.60
35654;PMS1003;21773;50.010;19.972;2023-02-28T00:10:14;21.60;19.80;17.60
35654;PMS1003;21773;50.010;19.972;2023-02-28T00:13:22;19.40;19.00;15.80
35654;PMS1003;21773;50.010;19.972;2023-02-28T00:16:25;19.60;18.80;17.40
35654;PMS1003;21773;50.010;19.972;2023-02-28T00:19:30;22.75;21.00;18.75
35654;PMS1003;21773;50.010;19.972;2023-02-28T00:22:33;24.00;23.00;20.00
35654;PMS1003;21773;50.010;19.972;2023-02-28T00:25:37;22.00;21.00;19.00
35654;PMS1003;21773;50.010;19.972;2023-02-28T00:28:40;24.33;21.33;18.33
35654;PMS1003;21773;50.010;19.972;2023-02-28T00:31:44;22.80;19.20;17.00
35654;PMS1003;21773;50.010;19.972;2023-02-28T00:34:49;19.75;18.75;16.75
35654;PMS1003;21773;50.010;19.972;2023-02-28T00:37:52;23.00;22.00;19.00
35654;PMS1003;21773;50.010;19.972;2023-02-28T00:40:55;21.00;20.00;18.00
35654;PMS1003;21773;50.010;19.972;2023-02-28T00:44:00;23.60;21.60;18.80
35654;PMS1003;21773;50.010;19.972;2023-02-28T00:47:06;22.60;21.60;18.60
35654;PMS1003;21773;50.010;19.972;2023-02-28T00:50:11;24.60;23.00;19.00
35654;PMS1003;21773;50.010;19.972;2023-02-28T00:53:14;20.75;18.00;14.25
35654;PMS1003;21773;50.010;19.972;2023-02-28T00:56:17;25.20;22.20;18.60
35654;PMS1003;21773;50.010;19.972;2023-02-28T00:59:21;24.50;22.75;20.00
35654;PMS1003;21773;50.010;19.972;2023-02-28T01:02:25;22.80;20.80;18.40
35654;PMS1003;21773;50.010;19.972;2023-02-28T01:05:29;24.80;23.00;20.20
35654;PMS1003;21773;50.010;19.972;2023-02-28T01:08:33;22.00;20.75;17.00
35654;PMS1003;21773;50.010;19.972;2023-02-28T01:11:36;18.00;18.00;15.50
35654;PMS1003;21773;50.010;19.972;2023-02-28T01:14:41;23.40;22.40;19.40
35654;PMS1003;21773;50.010;19.972;2023-02-28T01:17:44;21.00;20.00;17.00
35654;PMS1003;21773;50.010;19.972;2023-02-28T01:20:49;19.80;19.40;17.60
35654;PMS1003;21773;50.010;19.972;2023-02-28T01:23:55;21.00;19.60;17.40
35654;PMS1003;21773;50.010;19.972;2023-02-28T01:26:59;22.60;20.00;18.00
35654;PMS1003;21773;50.010;19.972;2023-02-28T01:30:02;20.60;20.00;16.60
35654;PMS1003;21773;50.010;19.972;2023-02-28T01:33:07;23.40;21.40;19.00
35654;PMS1003;21773;50.010;19.972;2023-02-28T01:36:12;26.40;24.00;19.00
35654;PMS1003;21773;50.010;19.972;2023-02-28T01:39:17;25.00;23.60;20.00
35654;PMS1003;21773;50.010;19.972;2023-02-28T01:42:20;22.40;19.60;16.00
35654;PMS1003;21773;50.010;19.972;2023-02-28T01:45:25;23.00;22.00;18.00
35654;PMS1003;21773;50.010;19.972;2023-02-28T01:48:30;22.20;21.80;18.60
35654;PMS1003;21773;50.010;19.972;2023-02-28T01:51:39;24.80;23.80;20.40
35654;PMS1003;21773;50.010;19.972;2023-02-28T01:54:53;23.60;22.00;20.00
35654;PMS1003;21773;50.010;19.972;2023-02-28T01:58:00;23.60;22.00;18.60
35654;PMS1003;21773;50.010;19.972;2023-02-28T02:01:07;26.60;24.60;20.00
35654;PMS1003;21773;50.010;19.972;2023-02-28T02:04:10;21.00;19.00;17.00
35654;PMS1003;21773;50.010;19.972;2023-02-28T02:07:17;23.00;21.00;18.00
35654;PMS1003;21773;50.010;19.972;2023-02-28T02:10:21;25.25;23.25;20.00
35654;PMS1003;21773;50.010;19.972;2023-02-28T02:13:33;23.00;22.00;18.33
35654;PMS1003;21773;50.010;19.972;2023-02-28T02:16:46;21.00;19.75;16.75
35654;PMS1003;21773;50.010;19.972;2023-02-28T02:20:13;25.75;24.00;20.00
35654;PMS1003;21773;50.010;19.972;2023-02-28T02:31:23;23.20;21.80;18.00
35654;PMS1003;21773;50.010;19.972;2023-02-28T02:34:48;23.80;21.00;18.00
35654;PMS1003;21773;50.010;19.972;2023-02-28T02:38:03;19.00;17.00;15.00
35654;PMS1003;21773;50.010;19.972;2023-02-28T02:41:13;25.50;23.50;20.00
35654;PMS1003;21773;50.010;19.972;2023-02-28T02:44:23;25.50;24.00;20.00
35654;PMS1003;21773;50.010;19.972;2023-02-28T02:47:30;24.20;21.40;18.60
35654;PMS1003;21773;50.010;19.972;2023-02-28T02:50:38;27.60;24.40;20.40
35654;PMS1003;21773;50.010;19.972;2023-02-28T02:53:46;23.00;21.00;18.00
35654;PMS1003;21773;50.010;19.972;2023-02-28T02:56:54;26.33;25.00;21.00
35654;PMS1003;21773;50.010;19.972;2023-02-28T03:00:02;22.40;20.40;18.40
35654;PMS1003;21773;50.010;19.972;2023-02-28T03:03:10;24.00;23.60;20.00
35654;PMS1003;21773;50.010;19.972;2023-02-28T03:06:16;23.20;22.00;19.20
35654;PMS1003;21773;50.010;19.972;2023-02-28T03:09:19;25.80;23.40;20.00
35654;PMS1003;21773;50.010;19.972;2023-02-28T03:12:23;22.00;21.00;18.00
35654;PMS1003;21773;50.010;19.972;2023-02-28T03:15:36;24.75;22.75;20.00
35654;PMS1003;21773;50.010;19.972;2023-02-28T03:18:54;24.60;22.60;19.00
35654;PMS1003;21773;50.010;19.972;2023-02-28T03:22:12;25.60;22.80;19.40
35654;PMS1003;21773;50.010;19.972;2023-02-28T03:25:25;21.80;18.80;15.80
35654;PMS1003;21773;50.010;19.972;2023-02-28T03:28:36;25.00;23.60;20.00
35654;PMS1003;21773;50.010;19.972;2023-02-28T03:31:48;23.00;21.40;19.00
35654;PMS1003;21773;50.010;19.972;2023-02-28T03:34:56;23.00;21.40;19.40
35654;PMS1003;21773;50.010;19.972;2023-02-28T03:38:10;31.40;29.80;23.20
35654;PMS1003;21773;50.010;19.972;2023-02-28T03:41:20;29.40;27.60;22.00
35654;PMS1003;21773;50.010;19.972;2023-02-28T03:44:27;28.60;26.80;21.40
35654;PMS1003;21773;50.010;19.972;2023-02-28T03:47:35;21.40;20.40;18.00
35654;PMS1003;21773;50.010;19.972;2023-02-28T03:50:45;24.50;23.50;20.50
35654;PMS1003;21773;50.010;19.972;2023-02-28T03:53:54;29.00;27.00;22.00
35654;PMS1003;21773;50.010;19.972;2023-02-28T03:57:03;29.00;25.80;22.00
35654;PMS1003;21773;50.010;19.972;2023-02-28T04:00:14;38.25;33.25;26.00
35654;PMS1003;21773;50.010;19.972;2023-02-28T04:03:22;29.33;25.67;22.00
35654;PMS1003;21773;50.010;19.972;2023-02-28T04:06:26;28.50;26.50;22.00
35654;PMS1003;21773;50.010;19.972;2023-02-28T04:09:31;27.60;25.60;21.40
35654;PMS1003;21773;50.010;19.972;2023-02-28T04:12:34;27.00;25.00;22.00
35654;PMS1003;21773;50.010;19.972;2023-02-28T04:15:37;34.80;32.00;25.80
35654;PMS1003;21773;50.010;19.972;2023-02-28T04:18:41;29.60;28.60;23.00
35654;PMS1003;21773;50.010;19.972;2023-02-28T04:21:46;31.00;29.25;23.00
35654;PMS1003;21773;50.010;19.972;2023-02-28T04:24:52;26.00;23.00;20.00
35654;PMS1003;21773;50.010;19.972;2023-02-28T04:27:56;29.60;28.00;23.00
35654;PMS1003;21773;50.010;19.972;2023-02-28T04:31:00;31.00;30.00;23.60
35654;PMS1003;21773;50.010;19.972;2023-02-28T04:34:05;30.00;28.40;22.40
35654;PMS1003;21773;50.010;19.972;2023-02-28T04:37:09;28.25;25.75;20.75
35654;PMS1003;21773;50.010;19.972;2023-02-28T04:40:16;27.60;25.80;22.00
35654;PMS1003;21773;50.010;19.972;2023-02-28T04:43:19;28.80;27.80;22.80
35654;PMS1003;21773;50.010;19.972;2023-02-28T04:46:23;31.40;28.40;21.40
35654;PMS1003;21773;50.010;19.972;2023-02-28T04:49:26;34.00;31.00;24.00
35654;PMS1003;21773;50.010;19.972;2023-02-28T04:52:30;29.60;27.80;22.80
35654;PMS1003;21773;50.010;19.972;2023-02-28T04:55:34;39.75;34.50;27.75
35654;PMS1003;21773;50.010;19.972;2023-02-28T04:58:38;30.60;28.00;22.00
35654;PMS1003;21773;50.010;19.972;2023-02-28T05:01:44;33.20;29.20;23.00
35654;PMS1003;21773;50.010;19.972;2023-02-28T05:04:49;32.33;28.33;23.00
35654;PMS1003;21773;50.010;19.972;2023-02-28T05:07:52;34.60;30.40;24.00
35654;PMS1003;21773;50.010;19.972;2023-02-28T05:10:58;41.60;35.60;28.00
35654;PMS1003;21773;50.010;19.972;2023-02-28T05:14:02;35.75;32.00;26.00
35654;PMS1003;21773;50.010;19.972;2023-02-28T05:17:07;35.75;32.00;26.00
35654;PMS1003;21773;50.010;19.972;2023-02-28T05:20:12;26.75;25.00;20.50
35654;PMS1003;21773;50.010;19.972;2023-02-28T05:23:17;35.00;30.00;24.00
35654;PMS1003;21773;50.010;19.972;2023-02-28T05:26:23;34.00;30.40;24.00
35654;PMS1003;21773;50.010;19.972;2023-02-28T05:29:27;32.00;29.00;23.40
35654;PMS1003;21773;50.010;19.972;2023-02-28T05:32:31;31.50;30.00;23.00
35654;PMS1003;21773;50.010;19.972;2023-02-28T05:35:34;35.33;32.00;24.67
35654;PMS1003;21773;50.010;19.972;2023-02-28T05:38:41;34.40;30.80;24.40
35654;PMS1003;21773;50.010;19.972;2023-02-28T05:41:45;30.00;28.00;23.00
35654;PMS1003;21773;50.010;19.972;2023-02-28T05:44:49;29.25;28.25;23.25
35654;PMS1003;21773;50.010;19.972;2023-02-28T05:47:53;31.80;29.40;23.40
35654;PMS1003;21773;50.010;19.972;2023-02-28T05:50:57;32.00;30.00;24.00
35654;PMS1003;21773;50.010;19.972;2023-02-28T05:54:00;38.50;31.50;25.25
35654;PMS1003;21773;50.010;19.972;2023-02-28T05:57:05;29.20;28.20;23.20
35654;PMS1003;21773;50.010;19.972;2023-02-28T06:00:24;34.25;31.00;24.25
35654;PMS1003;21773;50.010;19.972;2023-02-28T06:03:28;27.00;26.00;22.00
35654;PMS1003;21773;50.010;19.972;2023-02-28T06:06:31;38.60;32.60;25.00
35654;PMS1003;21773;50.010;19.972;2023-02-28T06:09:37;33.40;30.00;24.00
35654;PMS1003;21773;50.010;19.972;2023-02-28T06:12:42;30.60;29.40;23.00
35654;PMS1003;21773;50.010;19.972;2023-02-28T06:15:45;36.00;32.00;25.00
35654;PMS1003;21773;50.010;19.972;2023-02-28T06:18:49;35.00;31.25;24.00
35654;PMS1003;21773;50.010;19.972;2023-02-28T06:21:52;37.00;32.00;25.00
35654;PMS1003;21773;50.010;19.972;2023-02-28T06:24:56;33.20;30.00;23.20
35654;PMS1003;21773;50.010;19.972;2023-02-28T06:28:01;30.50;27.00;22.00
35654;PMS1003;21773;50.010;19.972;2023-02-28T06:31:08;33.60;30.60;24.00
35654;PMS1003;21773;50.010;19.972;2023-02-28T06:34:12;36.40;32.00;26.00
35654;PMS1003;21773;50.010;19.972;2023-02-28T06:37:15;31.00;30.00;23.00
35654;PMS1003;21773;50.010;19.972;2023-02-28T06:40:19;28.00;26.40;21.00
35654;PMS1003;21773;50.010;19.972;2023-02-28T06:43:23;31.25;28.00;22.75
35654;PMS1003;21773;50.010;19.972;2023-02-28T06:46:28;35.60;31.00;25.00
35654;PMS1003;21773;50.010;19.972;2023-02-28T06:49:31;34.00;30.00;24.00
35654;PMS1003;21773;50.010;19.972;2023-02-28T06:52:36;33.50;30.00;24.00
35654;PMS1003;21773;50.010;19.972;2023-02-28T06:55:40;36.20;32.60;26.60
35654;PMS1003;21773;50.010;19.972;2023-02-28T06:58:47;34.60;30.00;23.60
35654;PMS1003;21773;50.010;19.972;2023-02-28T07:01:51;33.00;30.00;23.50
35654;PMS1003;21773;50.010;19.972;2023-02-28T07:04:54;34.00;31.00;24.00
35654;PMS1003;21773;50.010;19.972;2023-02-28T07:07:58;36.00;32.80;25.00
35654;PMS1003;21773;50.010;19.972;2023-02-28T07:11:01;36.00;32.00;24.00
35654;PMS1003;21773;50.010;19.972;2023-02-28T07:14:07;35.40;32.00;26.00
35654;PMS1003;21773;50.010;19.972;2023-02-28T07:17:10;33.60;30.40;24.00
35654;PMS1003;21773;50.010;19.972;2023-02-28T07:20:14;36.60;32.00;25.00
35654;PMS1003;21773;50.010;19.972;2023-02-28T07:23:17;36.00;32.00;24.00
35654;PMS1003;21773;50.010;19.972;2023-02-28T07:26:21;33.60;29.00;23.00
35654;PMS1003;21773;50.010;19.972;2023-02-28T07:29:26;35.00;31.80;25.20
35654;PMS1003;21773;50.010;19.972;2023-02-28T07:32:29;36.25;31.50;25.25
35654;PMS1003;21773;50.010;19.972;2023-02-28T07:35:32;33.20;29.20;22.20
35654;PMS1003;21773;50.010;19.972;2023-02-28T07:38:36;35.40;31.00;24.20
35654;PMS1003;21773;50.010;19.972;2023-02-28T07:41:40;37.00;32.00;24.60
35654;PMS1003;21773;50.010;19.972;2023-02-28T07:44:47;34.80;31.20;23.80
35654;PMS1003;21773;50.010;19.972;2023-02-28T07:47:50;36.00;32.00;24.00
35654;PMS1003;21773;50.010;19.972;2023-02-28T07:50:54;32.00;30.00;23.60
35654;PMS1003;21773;50.010;19.972;2023-02-28T07:53:58;29.25;25.25;21.25
35654;PMS1003;21773;50.010;19.972;2023-02-28T07:57:01;28.80;25.80;20.80
35654;PMS1003;21773;50.010;19.972;2023-02-28T08:00:07;29.50;28.00;23.00
35654;PMS1003;21773;50.010;19.972;2023-02-28T08:03:14;30.40;29.00;23.00
35654;PMS1003;21773;50.010;19.972;2023-02-28T08:06:18;27.25;27.00;22.00
35654;PMS1003;21773;50.010;19.972;2023-02-28T08:09:23;31.25;29.00;23.75
35654;PMS1003;21773;50.010;19.972;2023-02-28T08:12:27;35.60;30.60;23.00
35654;PMS1003;21773;50.010;19.972;2023-02-28T08:15:32;27.00;25.00;21.00
35654;PMS1003;21773;50.010;19.972;2023-02-28T08:18:35;30.40;27.40;20.80
35654;PMS1003;21773;50.010;19.972;2023-02-28T08:21:39;31.00;30.00;23.40
35654;PMS1003;21773;50.010;19.972;2023-02-28T08:24:42;29.60;27.60;22.60
35654;PMS1003;21773;50.010;19.972;2023-02-28T08:27:46;19.40;18.80;15.80
35654;PMS1003;21773;50.010;19.972;2023-02-28T08:30:50;23.40;21.80;19.80
35654;PMS1003;21773;50.010;19.972;2023-02-28T08:33:54;23.00;21.00;18.00
35654;PMS1003;21773;50.010;19.972;2023-02-28T08:37:00;19.00;19.00;16.20
35654;PMS1003;21773;50.010;19.972;2023-02-28T08:40:04;21.00;20.00;17.00
35654;PMS1003;21773;50.010;19.972;2023-02-28T08:43:08;20.60;18.20;17.20
35654;PMS1003;21773;50.010;19.972;2023-02-28T08:46:13;23.00;21.50;19.25
35654;PMS1003;21773;50.010;19.972;2023-02-28T08:49:16;17.80;16.80;15.00
35654;PMS1003;21773;50.010;19.972;2023-02-28T08:52:20;22.00;21.00;19.00
35654;PMS1003;21773;50.010;19.972;2023-02-28T08:55:23;20.50;18.50;17.00
35654;PMS1003;21773;50.010;19.972;2023-02-28T08:58:27;20.00;20.00;17.00
35654;PMS1003;21773;50.010;19.972;2023-02-28T09:01:32;20.20;18.00;15.60
35654;PMS1003;21773;50.010;19.972;2023-02-28T09:04:35;18.00;17.80;15.00
35654;PMS1003;21773;50.010;19.972;2023-02-28T09:07:38;15.80;15.20;14.00
35654;PMS1003;21773;50.010;19.972;2023-02-28T09:10:42;14.60;13.60;13.00
35654;PMS1003;21773;50.010;19.972;2023-02-28T09:13:46;14.40;14.00;13.00
35654;PMS1003;21773;50.010;19.972;2023-02-28T09:16:51;13.00;13.00;11.00
35654;PMS1003;21773;50.010;19.972;2023-02-28T09:19:54;13.60;12.00;11.00
35654;PMS1003;21773;50.010;19.972;2023-02-28T09:22:58;16.00;15.00;14.00
35654;PMS1003;21773;50.010;19.972;2023-02-28T09:26:02;13.60;12.60;11.60
35654;PMS1003;21773;50.010;19.972;2023-02-28T09:29:06;13.80;12.80;11.80
35654;PMS1003;21773;50.010;19.972;2023-02-28T09:32:11;13.60;12.40;11.40
35654;PMS1003;21773;50.010;19.972;2023-02-28T09:35:14;11.00;11.00;10.00
35654;PMS1003;21773;50.010;19.972;2023-02-28T09:38:18;12.00;11.40;10.40
35654;PMS1003;21773;50.010;19.972;2023-02-28T09:41:22;13.00;12.50;11.00
35654;PMS1003;21773;50.010;19.972;2023-02-28T09:44:30;13.20;12.20;11.00
35654;PMS1003;21773;50.010;19.972;2023-02-28T09:47:40;14.75;11.25;10.00
35654;PMS1003;21773;50.010;19.972;2023-02-28T09:50:48;12.60;12.00;10.60
35654;PMS1003;21773;50.010;19.972;2023-02-28T09:53:53;13.00;12.00;11.00
35654;PMS1003;21773;50.010;19.972;2023-02-28T09:57:05;14.00;13.40;12.00
35654;PMS1003;21773;50.010;19.972;2023-02-28T10:00:13;13.40;12.60;11.00
35654;PMS1003;21773;50.010;19.972;2023-02-28T10:03:31;13.00;13.00;12.00
35654;PMS1003;21773;50.010;19.972;2023-02-28T10:06:40;15.00;13.60;12.00
35654;PMS1003;21773;50.010;19.972;2023-02-28T10:09:50;14.00;13.60;12.60
35654;PMS1003;21773;50.010;19.972;2023-02-28T10:12:58;13.60;13.00;12.00
35654;PMS1003;21773;50.010;19.972;2023-02-28T10:16:06;17.00;15.00;13.00
35654;PMS1003;21773;50.010;19.972;2023-02-28T10:19:14;14.60;13.00;11.40
35654;PMS1003;21773;50.010;19.972;2023-02-28T10:22:24;12.60;12.00;10.00
35654;PMS1003;21773;50.010;19.972;2023-02-28T10:25:31;13.60;12.60;11.00
35654;PMS1003;21773;50.010;19.972;2023-02-28T10:28:35;14.80;14.40;12.80
35654;PMS1003;21773;50.010;19.972;2023-02-28T10:31:38;12.00;11.00;11.00
35654;PMS1003;21773;50.010;19.972;2023-02-28T10:34:44;12.25;11.00;10.00
35654;PMS1003;21773;50.010;19.972;2023-02-28T10:37:54;11.80;10.00;9.00
35654;PMS1003;21773;50.010;19.972;2023-02-28T10:41:06;12.00;11.80;10.00
35654;PMS1003;21773;50.010;19.972;2023-02-28T10:44:14;11.00;11.00;9.60
35654;PMS1003;21773;50.010;19.972;2023-02-28T10:47:23;11.00;11.00;10.00
35654;PMS1003;21773;50.010;19.972;2023-02-28T10:50:29;12.00;11.00;10.00
35654;PMS1003;21773;50.010;19.972;2023-02-28T10:53:39;12.80;11.20;10.80
35654;PMS1003;21773;50.010;19.972;2023-02-28T10:57:05;12.00;11.60;10.00
35654;PMS1003;21773;50.010;19.972;2023-02-28T11:00:14;11.60;11.60;10.60
35654;PMS1003;21773;50.010;19.972;2023-02-28T11:03:24;14.60;12.00;10.00
35654;PMS1003;21773;50.010;19.972;2023-02-28T11:06:34;12.60;12.60;11.00
35654;PMS1003;21773;50.010;19.972;2023-02-28T11:09:38;12.75;12.00;10.00
35654;PMS1003;21773;50.010;19.972;2023-02-28T11:12:44;12.60;11.60;10.00
35654;PMS1003;21773;50.010;19.972;2023-02-28T11:15:54;15.00;12.60;11.60
35654;PMS1003;21773;50.010;19.972;2023-02-28T11:19:00;12.00;11.40;10.00
35654;PMS1003;21773;50.010;19.972;2023-02-28T11:22:07;13.00;12.40;10.40
35654;PMS1003;21773;50.010;19.972;2023-02-28T11:25:16;12.00;12.00;10.00
35654;PMS1003;21773;50.010;19.972;2023-02-28T11:28:25;11.80;10.00;9.00
35654;PMS1003;21773;50.010;19.972;2023-02-28T11:31:30;16.00;15.00;13.00
35654;PMS1003;21773;50.010;19.972;2023-02-28T11:34:37;12.00;12.00;10.50
35654;PMS1003;21773;50.010;19.972;2023-02-28T11:37:43;15.00;14.00;13.00
35654;PMS1003;21773;50.010;19.972;2023-02-28T11:40:48;14.00;13.60;12.00
35654;PMS1003;21773;50.010;19.972;2023-02-28T11:44:10;11.80;11.80;10.40
35654;PMS1003;21773;50.010;19.972;2023-02-28T11:47:28;15.00;14.00;12.00
35654;PMS1003;21773;50.010;19.972;2023-02-28T11:50:46;12.00;12.00;11.00
35654;PMS1003;21773;50.010;19.972;2023-02-28T11:54:08;14.80;13.00;11.80
35654;PMS1003;21773;50.010;19.972;2023-02-28T11:57:35;11.00;11.00;10.00
35654;PMS1003;21773;50.010;19.972;2023-02-28T12:04:32;10.60;9.60;8.40
35654;PMS1003;21773;50.010;19.972;2023-02-28T12:07:47;13.00;12.00;10.40
35654;PMS1003;21773;50.010;19.972;2023-02-28T12:11:06;12.00;11.00;9.50
35654;PMS1003;21773;50.010;19.972;2023-02-28T12:14:22;10.60;10.60;9.60
35654;PMS1003;21773;50.010;19.972;2023-02-28T12:17:43;14.00;12.00;11.00
35654;PMS1003;21773;50.010;19.972;2023-02-28T12:20:59;11.00;11.00;10.00
35654;PMS1003;21773;50.010;19.972;2023-02-28T12:24:14;12.20;12.00;11.00
35654;PMS1003;21773;50.010;19.972;2023-02-28T12:27:34;11.60;11.60;10.00
35654;PMS1003;21773;50.010;19.972;2023-02-28T12:30:42;12.80;12.20;10.00
35654;PMS1003;21773;50.010;19.972;2023-02-28T12:33:55;13.60;12.00;11.00
35654;PMS1003;21773;50.010;19.972;2023-02-28T12:37:03;16.60;15.60;14.60
35654;PMS1003;21773;50.010;19.972;2023-02-28T12:40:10;12.50;12.50;11.50
35654;PMS1003;21773;50.010;19.972;2023-02-28T12:43:17;14.60;13.20;12.00
35654;PMS1003;21773;50.010;19.972;2023-02-28T12:46:23;13.00;12.00;11.00
35654;PMS1003;21773;50.010;19.972;2023-02-28T12:49:33;15.00;14.60;13.60
35654;PMS1003;21773;50.010;19.972;2023-02-28T12:52:42;19.00;18.00;17.00
35654;PMS1003;21773;50.010;19.972;2023-02-28T12:55:57;15.60;15.00;13.00
35654;PMS1003;21773;50.010;19.972;2023-02-28T12:59:14;14.00;13.00;11.00
35654;PMS1003;21773;50.010;19.972;2023-02-28T13:06:09;16.00;15.50;14.00
35654;PMS1003;21773;50.010;19.972;2023-02-28T13:09:34;15.60;14.00;12.60
35654;PMS1003;21773;50.010;19.972;2023-02-28T13:12:37;14.00;14.00;12.60
35654;PMS1003;21773;50.010;19.972;2023-02-28T13:16:00;14.75;14.50;12.75
35654;PMS1003;21773;50.010;19.972;2023-02-28T13:19:09;13.80;13.80;12.00
35654;PMS1003;21773;50.010;19.972;2023-02-28T13:22:18;17.60;16.20;14.40
35654;PMS1003;21773;50.010;19.972;2023-02-28T13:29:27;17.00;17.00;14.00
35654;PMS1003;21773;50.010;19.972;2023-02-28T13:32:33;13.00;13.00;11.00
35654;PMS1003;21773;50.010;19.972;2023-02-28T13:35:44;16.60;15.40;14.00
35654;PMS1003;21773;50.010;19.972;2023-02-28T13:38:48;15.00;14.00;12.00
35654;PMS1003;21773;50.010;19.972;2023-02-28T13:41:53;15.80;15.00;13.40
35654;PMS1003;21773;50.010;19.972;2023-02-28T13:48:27;13.60;13.60;12.40
35654;PMS1003;21773;50.010;19.972;2023-02-28T13:51:37;16.20;15.00;14.00
35654;PMS1003;21773;50.010;19.972;2023-02-28T13:54:45;15.80;14.80;13.80
35654;PMS1003;21773;50.010;19.972;2023-02-28T13:58:12;17.00;16.00;15.00
35654;PMS1003;21773;50.010;19.972;2023-02-28T14:01:40;17.00;16.60;14.60
35654;PMS1003;21773;50.010;19.972;2023-02-28T14:05:01;16.00;15.00;13.00
35654;PMS1003;21773;50.010;19.972;2023-02-28T14:08:12;15.00;14.00;12.00
35654;PMS1003;21773;50.010;19.972;2023-02-28T14:11:27;18.00;15.40;13.00
35654;PMS1003;21773;50.010;19.972;2023-02-28T14:17:57;16.50;16.00;14.50
35654;PMS1003;21773;50.010;19.972;2023-02-28T14:21:10;15.00;14.67;12.67
35654;PMS1003;21773;50.010;19.972;2023-02-28T14:24:25;20.40;17.40;15.40
35654;PMS1003;21773;50.010;19.972;2023-02-28T14:27:43;19.60;17.00;14.60
35654;PMS1003;21773;50.010;19.972;2023-02-28T14:30:56;21.00;18.00;15.00
35654;PMS1003;21773;50.010;19.972;2023-02-28T14:34:16;15.20;14.00;12.00
35654;PMS1003;21773;50.010;19.972;2023-02-28T14:37:36;17.40;16.40;14.40
35654;PMS1003;21773;50.010;19.972;2023-02-28T14:40:42;18.80;17.40;15.40
35654;PMS1003;21773;50.010;19.972;2023-02-28T14:43:48;20.00;19.00;16.00
35654;PMS1003;21773;50.010;19.972;2023-02-28T14:46:53;16.60;15.00;13.20
35654;PMS1003;21773;50.010;19.972;2023-02-28T14:49:58;18.25;17.00;15.75
35654;PMS1003;21773;50.010;19.972;2023-02-28T14:53:05;17.00;16.25;14.50
35654;PMS1003;21773;50.010;19.972;2023-02-28T14:56:19;18.75;18.00;17.00
35654;PMS1003;21773;50.010;19.972;2023-02-28T14:59:26;17.00;15.80;14.20
35654;PMS1003;21773;50.010;19.972;2023-02-28T15:02:33;20.00;19.00;18.00
35654;PMS1003;21773;50.010;19.972;2023-02-28T15:05:38;15.75;14.75;13.00
35654;PMS1003;21773;50.010;19.972;2023-02-28T15:08:42;19.20;18.60;17.20
35654;PMS1003;21773;50.010;19.972;2023-02-28T15:11:47;17.00;16.00;15.00
35654;PMS1003;21773;50.010;19.972;2023-02-28T15:14:53;18.00;17.00;16.00
35654;PMS1003;21773;50.010;19.972;2023-02-28T15:17:56;16.50;16.50;15.50
35654;PMS1003;21773;50.010;19.972;2023-02-28T15:21:11;17.75;17.25;17.00
35654;PMS1003;21773;50.010;19.972;2023-02-28T15:24:21;22.40;20.40;18.40
35654;PMS1003;21773;50.010;19.972;2023-02-28T15:27:33;20.00;20.00;17.40
35654;PMS1003;21773;50.010;19.972;2023-02-28T15:30:52;20.00;19.00;17.00
35654;PMS1003;21773;50.010;19.972;2023-02-28T15:34:04;24.20;22.20;20.00
35654;PMS1003;21773;50.010;19.972;2023-02-28T15:40:35;21.20;20.60;18.00
35654;PMS1003;21773;50.010;19.972;2023-02-28T15:43:40;24.00;21.40;19.00
35654;PMS1003;21773;50.010;19.972;2023-02-28T15:46:53;21.20;18.20;17.00
35654;PMS1003;21773;50.010;19.972;2023-02-28T15:50:00;23.00;22.00;20.00
35654;PMS1003;21773;50.010;19.972;2023-02-28T15:53:05;18.80;18.00;16.00
35654;PMS1003;21773;50.010;19.972;2023-02-28T15:56:22;21.80;19.80;17.80
35654;PMS1003;21773;50.010;19.972;2023-02-28T15:59:36;23.00;21.00;18.00
35654;PMS1003;21773;50.010;19.972;2023-02-28T16:02:40;20.60;20.60;19.00
35654;PMS1003;21773;50.010;19.972;2023-02-28T16:05:44;21.60;21.00;19.00
35654;PMS1003;21773;50.010;19.972;2023-02-28T16:08:47;13.00;12.40;11.00
35654;PMS1003;21773;50.010;19.972;2023-02-28T16:11:55;23.60;22.20;19.60
35654;PMS1003;21773;50.010;19.972;2023-02-28T16:14:59;23.00;21.00;19.75
35654;PMS1003;21773;50.010;19.972;2023-02-28T16:18:07;19.00;19.00;16.00
35654;PMS1003;21773;50.010;19.972;2023-02-28T16:21:14;23.20;22.20;18.60
35654;PMS1003;21773;50.010;19.972;2023-02-28T16:24:17;23.50;20.50;18.00
35654;PMS1003;21773;50.010;19.972;2023-02-28T16:27:24;17.80;17.80;16.80
35654;PMS1003;21773;50.010;19.972;2023-02-28T16:30:32;23.60;23.60;20.60
35654;PMS1003;21773;50.010;19.972;2023-02-28T16:33:36;23.00;21.00;19.00
35654;PMS1003;21773;50.010;19.972;2023-02-28T16:36:39;19.80;19.00;16.80
35654;PMS1003;21773;50.010;19.972;2023-02-28T16:39:43;22.50;21.00;19.00
35654;PMS1003;21773;50.010;19.972;2023-02-28T16:42:49;18.00;16.75;14.75
35654;PMS1003;21773;50.010;19.972;2023-02-28T16:45:55;26.25;24.00;20.75
35654;PMS1003;21773;50.010;19.972;2023-02-28T16:49:02;21.00;18.40;16.00
35654;PMS1003;21773;50.010;19.972;2023-02-28T16:52:05;23.00;22.00;20.00
35654;PMS1003;21773;50.010;19.972;2023-02-28T16:55:09;22.50;22.00;20.00
35654;PMS1003;21773;50.010;19.972;2023-02-28T16:58:15;24.00;21.40;20.00
35654;PMS1003;21773;50.010;19.972;2023-02-28T17:01:20;24.50;23.00;20.25
35654;PMS1003;21773;50.010;19.972;2023-02-28T17:04:24;26.40;24.40;21.00
35654;PMS1003;21773;50.010;19.972;2023-02-28T17:07:28;24.20;22.40;19.80
35654;PMS1003;21773;50.010;19.972;2023-02-28T17:10:31;25.00;22.20;19.20
35654;PMS1003;21773;50.010;19.972;2023-02-28T17:13:36;24.40;22.00;19.00
35654;PMS1003;21773;50.010;19.972;2023-02-28T17:16:39;27.00;25.80;22.00
35654;PMS1003;21773;50.010;19.972;2023-02-28T17:19:44;25.60;23.60;20.60
35654;PMS1003;21773;50.010;19.972;2023-02-28T17:22:47;25.60;24.60;20.60
35654;PMS1003;21773;50.010;19.972;2023-02-28T17:25:51;25.80;24.60;20.80
35654;PMS1003;21773;50.010;19.972;2023-02-28T17:29:00;25.50;24.00;21.00
35654;PMS1003;21773;50.010;19.972;2023-02-28T17:32:04;21.50;21.25;19.25
35654;PMS1003;21773;50.010;19.972;2023-02-28T17:35:18;20.60;20.60;18.00
35654;PMS1003;21773;50.010;19.972;2023-02-28T17:38:21;25.00;24.00;21.00
35654;PMS1003;21773;50.010;19.972;2023-02-28T17:41:25;23.50;22.50;20.00
35654;PMS1003;21773;50.010;19.972;2023-02-28T17:44:32;23.80;21.00;18.80